Commerce City, Colorado
Current Conditions -  °F | °C
As of 7:58 PM on Saturday 22 Nov 2014 (Local Time) from KBKF Reporting Station
Broken Clouds Broken Clouds  
Wind Chill: 43°   Ceiling: 15000
Heat Index: 46°   Visibility: 10mi
Dew Point: 25°   Wind: 6mph
Humidity: 44%   Direction: 290°WNW
Pressure: 29.62"   Gusts: NA
Location:  39.81°N, 104.92°W
Report Text: KBKF 230258Z 29005KT 10SM FEW100 BKN150 08/M04 A2962 RMK AO2A SLP003 T00761039 55003
Loading
Personal Weather Stations






























Interactive Weather Map New forecast layout! Learn more

10-Day Weather Forecast

Advertisements
Track Severe Weather on mobile